createdAt,value
2023-06-20T00:00:14.830Z,47.95996
2023-06-20T00:00:44.814Z,47.92773
2023-06-20T00:01:14.815Z,48.33594
2023-06-20T00:01:44.819Z,48.73242
2023-06-20T00:02:14.823Z,48.54199
2023-06-20T00:02:44.872Z,48.75586
2023-06-20T00:03:14.814Z,48.19922
2023-06-20T00:03:44.860Z,48.46191
2023-06-20T00:04:14.838Z,48.5498
2023-06-20T00:04:44.823Z,48.74414
2023-06-20T00:05:14.831Z,49.13184
2023-06-20T00:05:44.820Z,49.21875
2023-06-20T00:06:14.819Z,49.20801
2023-06-20T00:06:44.816Z,49.23047
2023-06-20T00:07:14.816Z,49.27441
2023-06-20T00:07:44.824Z,49.43652
2023-06-20T00:08:14.825Z,49.24219
2023-06-20T00:08:44.831Z,49.29004
2023-06-20T00:09:14.829Z,49.31543
2023-06-20T00:09:44.817Z,49.17773
2023-06-20T00:10:14.829Z,48.85352
2023-06-20T00:10:44.847Z,48.56152
2023-06-20T00:11:14.819Z,48.79004
2023-06-20T00:11:44.838Z,49.05176
2023-06-20T00:12:14.818Z,49.07324
2023-06-20T00:12:44.824Z,49.02832
2023-06-20T00:13:14.815Z,48.54785
2023-06-20T00:13:44.816Z,48.71777
2023-06-20T00:14:14.819Z,48.4209
2023-06-20T00:14:44.824Z,49.11523
2023-06-20T00:15:14.826Z,48.68848
2023-06-20T00:15:44.818Z,49.34082
2023-06-20T00:16:14.829Z,49.56934
2023-06-20T00:16:44.822Z,49.13281
2023-06-20T00:17:14.826Z,49.31738
2023-06-20T00:17:44.851Z,49.28711
2023-06-20T00:18:14.823Z,49.38965
2023-06-20T00:18:44.832Z,49.29102
2023-06-20T00:19:14.833Z,49.32617
2023-06-20T00:19:44.822Z,49.23145
2023-06-20T00:20:14.828Z,49.20215
2023-06-20T00:20:44.820Z,49.68359
2023-06-20T00:21:14.836Z,49.64453
2023-06-20T00:21:44.828Z,49.88477
2023-06-20T00:22:14.820Z,49.49902
2023-06-20T00:22:44.824Z,49.61914
2023-06-20T00:23:14.835Z,50.0332
2023-06-20T00:23:44.817Z,50.41309
2023-06-20T00:24:14.866Z,50.2832
2023-06-20T00:24:44.856Z,50.28516
2023-06-20T00:25:14.824Z,50.45117
2023-06-20T00:25:44.824Z,51.03027
2023-06-20T00:26:14.820Z,50.64941
2023-06-20T00:26:44.827Z,50.8125
2023-06-20T00:27:14.824Z,51.12793
2023-06-20T00:27:44.822Z,51.60742
2023-06-20T00:28:14.826Z,51.70703
2023-06-20T00:28:44.828Z,51.6416
2023-06-20T00:29:14.825Z,51.75195
2023-06-20T00:29:44.823Z,51.62305
2023-06-20T00:30:14.838Z,51.65723
2023-06-20T00:30:44.824Z,51.91699
2023-06-20T00:31:14.824Z,52.30469
2023-06-20T00:31:44.827Z,52.30371
2023-06-20T00:32:14.835Z,52.5332
2023-06-20T00:32:44.957Z,52.23926
2023-06-20T00:33:14.897Z,52.29492
2023-06-20T00:33:44.833Z,52.30859
2023-06-20T00:34:14.856Z,52.58984
2023-06-20T00:34:44.838Z,52.86816
2023-06-20T00:35:14.832Z,53.08105
2023-06-20T00:35:44.826Z,53.21973
2023-06-20T00:36:14.827Z,52.94727
2023-06-20T00:36:44.822Z,52.9375
2023-06-20T00:37:14.825Z,52.94824
2023-06-20T00:37:44.825Z,52.67773
2023-06-20T00:38:14.827Z,52.52734
2023-06-20T00:38:44.826Z,52.50684
2023-06-20T00:39:14.835Z,52.76758
2023-06-20T00:39:44.827Z,52.73633
2023-06-20T00:40:14.854Z,52.77246
2023-06-20T00:40:44.831Z,52.75098
2023-06-20T00:41:14.836Z,52.5791
2023-06-20T00:41:44.834Z,52.75488
2023-06-20T00:42:14.827Z,52.7666
2023-06-20T00:42:44.834Z,52.66895
2023-06-20T00:43:14.830Z,52.59668
2023-06-20T00:43:44.829Z,52.16992
2023-06-20T00:44:14.832Z,52.16016
2023-06-20T00:44:44.824Z,52.07129
2023-06-20T00:45:14.827Z,52.14453
2023-06-20T00:45:44.881Z,51.95996
2023-06-20T00:46:14.868Z,51.69922
2023-06-20T00:46:44.835Z,51.70996
2023-06-20T00:47:14.830Z,51.54883
2023-06-20T00:47:44.864Z,51.83105
2023-06-20T00:48:14.861Z,51.80469
2023-06-20T00:48:44.836Z,52.09375
2023-06-20T00:49:14.853Z,52.10156
2023-06-20T00:49:44.832Z,52.04688
2023-06-20T00:50:14.836Z,52.05762
2023-06-20T00:50:44.837Z,52.16699
2023-06-20T00:51:14.829Z,52.42969
2023-06-20T00:51:44.842Z,52.00879
2023-06-20T00:52:14.834Z,52.09961
2023-06-20T00:52:44.826Z,51.73633
2023-06-20T00:53:14.837Z,52.04492
2023-06-20T00:53:44.831Z,52.07227
2023-06-20T00:54:14.834Z,51.52148
2023-06-20T00:54:44.841Z,51.48047
2023-06-20T00:55:14.836Z,52.52734
2023-06-20T00:55:44.842Z,52.64746
2023-06-20T00:56:14.839Z,52.11523
2023-06-20T00:56:44.830Z,52.41895
2023-06-20T00:57:14.837Z,52.19922
2023-06-20T00:57:44.842Z,52.26172
2023-06-20T00:58:14.859Z,52.5498
2023-06-20T00:58:44.832Z,52.43555
2023-06-20T00:59:14.830Z,52.62695
2023-06-20T00:59:44.843Z,52.5498
2023-06-20T01:00:14.831Z,52.38965
2023-06-20T01:00:44.845Z,52.42578
2023-06-20T01:01:14.842Z,52.40625
2023-06-20T01:01:44.877Z,52.17188
2023-06-20T01:02:14.863Z,52.05176
2023-06-20T01:02:44.950Z,52.00977
2023-06-20T01:03:15.057Z,52.27539
2023-06-20T01:03:45.042Z,51.89648
2023-06-20T01:04:14.831Z,51.62793
2023-06-20T01:04:44.843Z,51.10742
2023-06-20T01:05:14.839Z,51.31543
2023-06-20T01:05:44.843Z,51.45703
2023-06-20T01:06:14.830Z,51.44531
2023-06-20T01:06:44.856Z,51.13184
2023-06-20T01:07:14.838Z,50.9707
2023-06-20T01:07:44.832Z,51.19043
2023-06-20T01:08:14.834Z,50.81055
2023-06-20T01:08:44.843Z,50.60254
2023-06-20T01:09:14.840Z,50.78809
2023-06-20T01:09:44.840Z,50.96094
2023-06-20T01:10:14.841Z,50.65625
2023-06-20T01:10:44.836Z,50.69922
2023-06-20T01:11:14.837Z,50.69824
2023-06-20T01:11:44.850Z,51.49414
2023-06-20T01:12:14.837Z,50.86621
2023-06-20T01:12:44.855Z,50.57617
2023-06-20T01:13:14.844Z,50.39648
2023-06-20T01:13:44.836Z,50.15137
2023-06-20T01:14:14.833Z,49.99121
2023-06-20T01:14:44.838Z,50.36621
2023-06-20T01:15:14.837Z,50.93359
2023-06-20T01:15:44.844Z,50.32617
2023-06-20T01:16:14.870Z,49.86035
2023-06-20T01:16:44.833Z,49.85254
2023-06-20T01:17:14.834Z,49.6377
2023-06-20T01:17:44.874Z,49.64355
2023-06-20T01:18:14.840Z,49.58008
2023-06-20T01:18:44.846Z,50.11523
2023-06-20T01:19:14.851Z,50.07129
2023-06-20T01:19:44.857Z,50.20117
2023-06-20T01:20:14.846Z,49.98633
2023-06-20T01:20:44.846Z,49.63379
2023-06-20T01:21:14.852Z,49.3877
2023-06-20T01:21:44.842Z,49.33984
2023-06-20T01:22:14.837Z,49.35547
2023-06-20T01:22:44.841Z,49.31641
2023-06-20T01:23:14.846Z,49.24609
2023-06-20T01:23:44.838Z,49.51172
2023-06-20T01:24:14.964Z,49.31738
2023-06-20T01:24:44.888Z,49.30859
2023-06-20T01:25:14.840Z,49.42676
2023-06-20T01:25:44.838Z,48.97168
2023-06-20T01:26:14.844Z,48.92188
2023-06-20T01:26:44.845Z,49.54785
2023-06-20T01:27:14.845Z,48.75684
2023-06-20T01:27:44.853Z,48.62988
2023-06-20T01:28:14.837Z,48.77637
2023-06-20T01:28:44.837Z,48.85547
2023-06-20T01:29:14.866Z,48.64063
2023-06-20T01:29:44.841Z,48.86621
2023-06-20T01:30:14.838Z,48.79395
2023-06-20T01:30:44.890Z,48.21875
2023-06-20T01:31:14.850Z,47.87305
2023-06-20T01:31:44.838Z,48.07227
2023-06-20T01:32:14.838Z,48.81348
2023-06-20T01:32:44.867Z,48.70313
2023-06-20T01:33:14.842Z,48.36426
2023-06-20T01:33:44.846Z,48.91699
2023-06-20T01:34:14.846Z,48.90527
2023-06-20T01:34:44.844Z,48.43262
2023-06-20T01:35:14.846Z,48.61719
2023-06-20T01:35:44.840Z,49.02441
2023-06-20T01:36:14.854Z,49.39941
2023-06-20T01:36:44.842Z,49.2959
2023-06-20T01:37:14.844Z,48.9375
2023-06-20T01:37:44.845Z,48.5918
2023-06-20T01:38:14.853Z,48.72754
2023-06-20T01:38:44.860Z,49.08105
2023-06-20T01:39:14.846Z,48.61426
2023-06-20T01:39:44.842Z,48.47363
2023-06-20T01:40:14.855Z,48.74805
2023-06-20T01:40:44.847Z,48.78027
2023-06-20T01:41:14.845Z,49.05859
2023-06-20T01:41:44.848Z,49.6416
2023-06-20T01:42:14.857Z,49.54004
2023-06-20T01:42:44.849Z,49.4248
2023-06-20T01:43:14.853Z,49.45215
2023-06-20T01:43:44.846Z,49.67871
2023-06-20T01:44:14.858Z,49.84375
2023-06-20T01:44:44.846Z,49.39746
2023-06-20T01:45:14.847Z,49.24414
2023-06-20T01:45:44.860Z,49.07227
2023-06-20T01:46:14.865Z,49.01953
2023-06-20T01:46:44.893Z,49.07617
2023-06-20T01:47:14.848Z,49.35059
2023-06-20T01:47:44.865Z,49.10156
2023-06-20T01:48:14.857Z,49.24707
2023-06-20T01:48:44.866Z,49.93945
2023-06-20T01:49:14.846Z,49.33105
2023-06-20T01:49:44.859Z,49.07129
2023-06-20T01:50:14.854Z,49.04102
2023-06-20T01:50:44.854Z,50.2959
2023-06-20T01:51:14.884Z,49.93066
2023-06-20T01:51:44.876Z,50.07031
2023-06-20T01:52:14.849Z,49.83887
2023-06-20T01:52:44.870Z,50.05371
2023-06-20T01:53:14.854Z,50.50879
2023-06-20T01:53:44.876Z,50.90527
2023-06-20T01:54:14.867Z,50.85645
2023-06-20T01:54:44.861Z,51.19238
2023-06-20T01:55:14.852Z,50.85938
2023-06-20T01:55:44.898Z,51.2793
2023-06-20T01:56:14.853Z,51.39453
2023-06-20T01:56:44.864Z,51.08887
2023-06-20T01:57:14.856Z,51.04395
2023-06-20T01:57:44.867Z,51.33691
2023-06-20T01:58:14.849Z,51.33887
2023-06-20T01:58:44.847Z,50.92773
2023-06-20T01:59:15.274Z,51.36816
2023-06-20T01:59:44.892Z,50.83984
2023-06-20T02:00:14.849Z,51.02832
2023-06-20T02:00:44.870Z,50.58301
2023-06-20T02:01:14.851Z,50.83203
2023-06-20T02:01:44.864Z,50.87598
2023-06-20T02:02:14.848Z,50.7666
2023-06-20T02:02:44.900Z,50.87598
2023-06-20T02:03:14.994Z,50.7998
2023-06-20T02:03:44.921Z,50.70313
2023-06-20T02:04:14.865Z,50.68457
2023-06-20T02:04:44.870Z,50.5918
2023-06-20T02:05:14.855Z,50.94238
2023-06-20T02:05:44.868Z,51.23926
2023-06-20T02:06:14.852Z,50.25684
2023-06-20T02:06:44.857Z,50.79297
2023-06-20T02:07:14.855Z,51.27246
2023-06-20T02:07:44.875Z,51.24023
2023-06-20T02:08:14.854Z,49.99805
2023-06-20T02:08:44.864Z,50.22852
2023-06-20T02:09:14.851Z,49.75195
2023-06-20T02:09:44.856Z,49.59082
2023-06-20T02:10:14.858Z,49.34473
2023-06-20T02:10:44.870Z,49.49023
2023-06-20T02:11:14.856Z,49.51758
2023-06-20T02:11:44.865Z,49.11328
2023-06-20T02:12:14.858Z,49.12402
2023-06-20T02:12:44.871Z,48.5498
2023-06-20T02:13:14.857Z,48.11914
2023-06-20T02:13:44.853Z,48.13672
2023-06-20T02:14:14.857Z,48.06738
2023-06-20T02:14:44.858Z,47.77148
2023-06-20T02:15:14.853Z,47.81055
2023-06-20T02:15:44.861Z,47.85547
2023-06-20T02:16:14.869Z,47.77051
2023-06-20T02:16:44.922Z,47.61035
2023-06-20T02:17:14.853Z,47.98633
2023-06-20T02:17:44.901Z,47.8252
2023-06-20T02:18:14.851Z,47.98242
2023-06-20T02:18:44.862Z,48.2793
2023-06-20T02:19:14.890Z,48.26074
2023-06-20T02:19:44.889Z,47.67188
2023-06-20T02:20:14.884Z,47.60938
2023-06-20T02:20:44.864Z,47.38379
2023-06-20T02:21:14.853Z,47.41992
2023-06-20T02:21:44.862Z,47.78418
2023-06-20T02:22:14.857Z,48.44238
2023-06-20T02:22:44.857Z,47.74414
2023-06-20T02:23:14.851Z,47.50586
2023-06-20T02:23:44.855Z,47.88867
2023-06-20T02:24:14.932Z,46.68652
2023-06-20T02:24:44.955Z,47.40332
2023-06-20T02:25:14.871Z,45.87988
2023-06-20T02:25:44.861Z,45.86816
2023-06-20T02:26:14.861Z,46.21973
2023-06-20T02:26:44.862Z,46.09668
2023-06-20T02:27:14.874Z,46.52344
2023-06-20T02:27:44.866Z,46.20605
2023-06-20T02:28:14.878Z,46.78223
2023-06-20T02:28:44.867Z,46.39551
2023-06-20T02:29:14.864Z,46.32813
2023-06-20T02:29:44.859Z,46.33594
2023-06-20T02:30:14.863Z,46.4541
2023-06-20T02:30:44.862Z,46.47754
2023-06-20T02:31:14.856Z,46.20508
2023-06-20T02:31:44.891Z,46
2023-06-20T02:32:14.981Z,46.04883
2023-06-20T02:32:44.893Z,45.91016
2023-06-20T02:33:14.868Z,45.97949
2023-06-20T02:33:44.857Z,45.95117
2023-06-20T02:34:14.867Z,45.85645
2023-06-20T02:34:44.860Z,46.21875
2023-06-20T02:35:14.865Z,46.78613
2023-06-20T02:35:44.858Z,46.74023
2023-06-20T02:36:14.856Z,46.8291
2023-06-20T02:36:44.862Z,47.24609
2023-06-20T02:37:14.863Z,48.44629
2023-06-20T02:37:44.856Z,47.45801
2023-06-20T02:38:14.874Z,47.10742
2023-06-20T02:38:44.869Z,46.88965
2023-06-20T02:39:14.863Z,47.51465
2023-06-20T02:39:44.859Z,46.84863
2023-06-20T02:40:14.868Z,46.37695
2023-06-20T02:40:44.859Z,46.20215
2023-06-20T02:41:14.877Z,46.14844
2023-06-20T02:41:44.906Z,46.42188
2023-06-20T02:42:14.858Z,46.59473
2023-06-20T02:42:46.440Z,46.96875
2023-06-20T02:43:14.874Z,46.44824
2023-06-20T02:43:44.860Z,45.87207
2023-06-20T02:44:14.870Z,45.38184
2023-06-20T02:44:44.863Z,45.3291
2023-06-20T02:45:14.862Z,46.15137
2023-06-20T02:45:44.884Z,46.72168
2023-06-20T02:46:14.899Z,47.19238
2023-06-20T02:46:44.860Z,47.10938
2023-06-20T02:47:14.864Z,46.88086
2023-06-20T02:47:44.893Z,46.3623
2023-06-20T02:48:14.884Z,46.11816
2023-06-20T02:48:44.870Z,45.87402
2023-06-20T02:49:14.871Z,45.43457
2023-06-20T02:49:44.865Z,44.80176
2023-06-20T02:50:14.875Z,44.66016
2023-06-20T02:50:44.874Z,44.36328
2023-06-20T02:51:14.876Z,43.92285
2023-06-20T02:51:44.872Z,44.05469
2023-06-20T02:52:14.863Z,43.71973
2023-06-20T02:52:44.867Z,44.08691
2023-06-20T02:53:14.869Z,43.92676
2023-06-20T02:53:44.873Z,44.13672
2023-06-20T02:54:14.867Z,43.375
2023-06-20T02:54:44.868Z,43.31348
2023-06-20T02:55:14.863Z,43.61328
2023-06-20T02:55:44.876Z,43.58398
2023-06-20T02:56:14.883Z,43.34277
2023-06-20T02:56:44.869Z,43.76367
2023-06-20T02:57:14.870Z,44.2666
2023-06-20T02:57:44.871Z,43.40137
2023-06-20T02:58:14.878Z,43.50293
2023-06-20T02:58:44.867Z,43.38672
2023-06-20T02:59:14.869Z,43.15234
2023-06-20T02:59:44.871Z,42.77832
2023-06-20T03:00:14.875Z,42.40527
2023-06-20T03:00:44.877Z,41.87207
2023-06-20T03:01:14.965Z,41.96094
2023-06-20T03:01:44.937Z,41.97363
2023-06-20T03:02:14.890Z,41.97266
2023-06-20T03:02:44.960Z,41.99609
2023-06-20T03:03:14.965Z,41.80371
2023-06-20T03:03:45.075Z,41.72559
2023-06-20T03:04:14.880Z,41.53125
2023-06-20T03:04:44.870Z,41.19238
2023-06-20T03:05:14.913Z,40.18164
2023-06-20T03:05:44.889Z,40.21973
2023-06-20T03:06:14.873Z,40.56348
2023-06-20T03:06:44.880Z,40.75293
2023-06-20T03:07:14.866Z,41.04102
2023-06-20T03:07:44.874Z,41.10938
2023-06-20T03:08:14.880Z,41.5791
2023-06-20T03:08:44.880Z,41.78223
2023-06-20T03:09:14.874Z,41.63574
2023-06-20T03:09:44.876Z,41.57715
2023-06-20T03:10:14.905Z,42.56836
2023-06-20T03:10:44.883Z,42.18652
2023-06-20T03:11:14.882Z,43.33398
2023-06-20T03:11:44.884Z,43.13184
2023-06-20T03:12:14.874Z,42.96582
2023-06-20T03:12:44.878Z,43.38281
2023-06-20T03:13:14.876Z,43.12207
2023-06-20T03:13:44.873Z,43.03613
2023-06-20T03:14:14.869Z,43.89551
2023-06-20T03:14:44.881Z,43.92188
2023-06-20T03:15:14.884Z,45.16895
2023-06-20T03:15:44.896Z,45.56445
2023-06-20T03:16:14.911Z,45.30859
2023-06-20T03:16:44.903Z,45.55664
2023-06-20T03:17:14.871Z,45.5
2023-06-20T03:17:44.940Z,45.47266
2023-06-20T03:18:14.876Z,44.89648
2023-06-20T03:18:44.877Z,45.60156
2023-06-20T03:19:14.884Z,45.70508
2023-06-20T03:19:44.893Z,45.52246
2023-06-20T03:20:14.884Z,46.02441
2023-06-20T03:20:45.115Z,47.97266
2023-06-20T03:21:28.165Z,48.21387
2023-06-20T03:21:45.930Z,47.87891
2023-06-20T03:22:14.891Z,47.05371
2023-06-20T03:22:44.874Z,47.7207
2023-06-20T03:23:14.871Z,47.45703
2023-06-20T03:23:44.875Z,47.43945
2023-06-20T03:24:14.953Z,46.91895
2023-06-20T03:24:44.943Z,46.31152
2023-06-20T03:25:14.876Z,47.15625
2023-06-20T03:25:44.888Z,47.30762
2023-06-20T03:26:14.894Z,47.59961
2023-06-20T03:26:44.884Z,47.90723
2023-06-20T03:27:14.882Z,48.31152
2023-06-20T03:27:44.893Z,48.32031
2023-06-20T03:28:14.893Z,48.08105
2023-06-20T03:28:44.885Z,48.29492
2023-06-20T03:29:14.902Z,48.03418
2023-06-20T03:29:44.876Z,47.60059
2023-06-20T03:30:14.879Z,47.73828
2023-06-20T03:30:44.884Z,48.15137
2023-06-20T03:31:14.980Z,48.43164
2023-06-20T03:31:44.984Z,48.01074
2023-06-20T03:32:14.880Z,47.87891
2023-06-20T03:32:44.983Z,48.28613
2023-06-20T03:33:14.893Z,48.90137
2023-06-20T03:33:44.889Z,49.14063
2023-06-20T03:34:14.883Z,49.11133
2023-06-20T03:34:44.881Z,48.89746
2023-06-20T03:35:14.880Z,50.12402
2023-06-20T03:35:44.888Z,48.94238
2023-06-20T03:36:14.881Z,49.77246
2023-06-20T03:36:44.878Z,48.89941
2023-06-20T03:37:14.880Z,49.12402
2023-06-20T03:37:44.887Z,50.26172
2023-06-20T03:38:14.884Z,49.30664
2023-06-20T03:38:44.887Z,49.35742
2023-06-20T03:39:14.889Z,49.63965
2023-06-20T03:39:44.886Z,48.58984
2023-06-20T03:40:14.883Z,48.44336
2023-06-20T03:40:44.888Z,49.51758
2023-06-20T03:41:14.892Z,49.14258
2023-06-20T03:41:44.884Z,49.36816
2023-06-20T03:42:14.897Z,49.42676
2023-06-20T03:42:44.893Z,49.22168
2023-06-20T03:43:14.882Z,49.17969
2023-06-20T03:43:44.897Z,50.20508
2023-06-20T03:44:14.886Z,49.5127
2023-06-20T03:44:44.883Z,49.53711
2023-06-20T03:45:14.888Z,48.57031
2023-06-20T03:45:44.881Z,48.18066
2023-06-20T03:46:14.910Z,49.67969
2023-06-20T03:46:44.917Z,50.08594
2023-06-20T03:47:14.885Z,51.4707
2023-06-20T03:47:44.924Z,50.47852
2023-06-20T03:48:14.892Z,49.79297
2023-06-20T03:48:44.896Z,51.62598
2023-06-20T03:49:14.896Z,51.37109
2023-06-20T03:49:45.568Z,49.83301
2023-06-20T03:50:14.899Z,49.62207
2023-06-20T03:50:44.899Z,49.96289
2023-06-20T03:51:14.906Z,49.72754
2023-06-20T03:51:44.898Z,49.15723
2023-06-20T03:52:14.896Z,50.2334
2023-06-20T03:52:44.887Z,50.80469
2023-06-20T03:53:14.887Z,51.14941
2023-06-20T03:53:44.909Z,51.33008
2023-06-20T03:54:14.902Z,51.33008
2023-06-20T03:54:44.892Z,52.46191
2023-06-20T03:55:14.888Z,51.8623
2023-06-20T03:55:44.896Z,52.39355
2023-06-20T03:56:14.886Z,52.82422
2023-06-20T03:56:44.913Z,52.73926
2023-06-20T03:57:14.889Z,52.81641
2023-06-20T03:57:44.897Z,52.4502
2023-06-20T03:58:14.899Z,51.81152
2023-06-20T03:58:44.924Z,52.35645
2023-06-20T03:59:14.894Z,52.68066
2023-06-20T03:59:44.895Z,53.10938
2023-06-20T04:00:14.888Z,52.51563
2023-06-20T04:00:44.949Z,52.03613
2023-06-20T04:01:14.924Z,51.81934
2023-06-20T04:01:44.893Z,52.72754
2023-06-20T04:02:14.910Z,53.12891
2023-06-20T04:02:45.042Z,53.69824
2023-06-20T04:03:15.126Z,52.78516
2023-06-20T04:03:45.012Z,52.78418
2023-06-20T04:04:14.927Z,52.83789
2023-06-20T04:04:44.901Z,52.9502
2023-06-20T04:05:14.907Z,53.21582
2023-06-20T04:05:44.931Z,53.50488
2023-06-20T04:06:14.894Z,53.33301
2023-06-20T04:06:44.903Z,53.11426
2023-06-20T04:07:14.904Z,54.28516
2023-06-20T04:07:44.898Z,54.10156
2023-06-20T04:08:14.900Z,54.14648
2023-06-20T04:08:44.902Z,54.78809
2023-06-20T04:09:14.893Z,55.5293
2023-06-20T04:09:44.898Z,53.91309
2023-06-20T04:10:14.978Z,53.66406
2023-06-20T04:10:44.899Z,55.53809
2023-06-20T04:11:14.892Z,55.1709
2023-06-20T04:11:44.899Z,54.3291
2023-06-20T04:12:14.894Z,55.87793
2023-06-20T04:12:44.898Z,55.0166
2023-06-20T04:13:14.894Z,55.24707
2023-06-20T04:13:44.895Z,55.51563
2023-06-20T04:14:14.900Z,56.47559
2023-06-20T04:14:44.906Z,56.64844
2023-06-20T04:15:14.901Z,56.40039
2023-06-20T04:15:44.913Z,56.73828
2023-06-20T04:16:14.907Z,56.81348
2023-06-20T04:16:44.897Z,55.87207
2023-06-20T04:17:14.897Z,56.34668
2023-06-20T04:17:44.930Z,56.33496
2023-06-20T04:18:14.900Z,56.50293
2023-06-20T04:18:44.896Z,56.81641
2023-06-20T04:19:14.899Z,58.20215
2023-06-20T04:19:44.907Z,58.25879
2023-06-20T04:20:14.923Z,58.90723
2023-06-20T04:20:44.917Z,59.11328
2023-06-20T04:21:14.897Z,58.59961
2023-06-20T04:21:44.903Z,58.66992
2023-06-20T04:22:14.903Z,58.1084
2023-06-20T04:22:44.909Z,59.23828
2023-06-20T04:23:14.912Z,58.70117
2023-06-20T04:23:44.904Z,58.30664
2023-06-20T04:24:15.936Z,57.82324
2023-06-20T04:24:45.017Z,58.91602
2023-06-20T04:25:14.994Z,58.5918
2023-06-20T04:25:44.915Z,59.5293
2023-06-20T04:26:14.910Z,60.27051
2023-06-20T04:26:44.905Z,60.73926
2023-06-20T04:27:14.895Z,61.67871
2023-06-20T04:27:44.963Z,61.53223
2023-06-20T04:28:14.917Z,60.52539
2023-06-20T04:28:44.903Z,59.25391
2023-06-20T04:29:14.903Z,58.74609
2023-06-20T04:29:44.907Z,59.9541
2023-06-20T04:30:14.900Z,59.91504
2023-06-20T04:30:44.903Z,61.54199
2023-06-20T04:31:14.902Z,60.21777
2023-06-20T04:31:44.900Z,59.57715
2023-06-20T04:32:14.899Z,58.8291
2023-06-20T04:32:44.985Z,58.58594
2023-06-20T04:33:14.938Z,58.63965
2023-06-20T04:33:44.898Z,59.52734
2023-06-20T04:34:14.911Z,59.0791
2023-06-20T04:34:44.909Z,59.86719
2023-06-20T04:35:14.928Z,58.43262
2023-06-20T04:35:44.908Z,57.72559
2023-06-20T04:36:14.899Z,57.03906
2023-06-20T04:36:44.904Z,57.05762
2023-06-20T04:37:14.902Z,56.84766
2023-06-20T04:37:44.925Z,56.20508
2023-06-20T04:38:14.904Z,57.32031
2023-06-20T04:38:44.900Z,56.68262
2023-06-20T04:39:14.898Z,56.6582
2023-06-20T04:39:44.913Z,56.85742
2023-06-20T04:40:14.899Z,56.61914
2023-06-20T04:40:44.902Z,56.14453
2023-06-20T04:41:14.929Z,55.91113
2023-06-20T04:41:44.905Z,56.89453
2023-06-20T04:42:14.911Z,55.26367
2023-06-20T04:42:44.931Z,56.66504
2023-06-20T04:43:14.906Z,54.20801
2023-06-20T04:43:44.902Z,54.48535
2023-06-20T04:44:14.903Z,54.90332
2023-06-20T04:44:44.906Z,52.67969
2023-06-20T04:45:14.918Z,52.12793
2023-06-20T04:45:44.901Z,51.36426
2023-06-20T04:46:14.899Z,50.51367
2023-06-20T04:46:44.901Z,50.14551
2023-06-20T04:47:14.947Z,48.93262
2023-06-20T04:47:44.973Z,49.17871
2023-06-20T04:48:14.968Z,47.14648
2023-06-20T04:48:44.960Z,45.36523
2023-06-20T04:49:14.903Z,45.08789
2023-06-20T04:49:44.906Z,44.09668
2023-06-20T04:50:14.910Z,44.18262
2023-06-20T04:50:44.929Z,43.80371
2023-06-20T04:51:14.918Z,42.72754
2023-06-20T04:51:44.905Z,42.10645
2023-06-20T04:52:14.906Z,41.04199
2023-06-20T04:52:44.908Z,41.0625
2023-06-20T04:53:14.903Z,40.88184
2023-06-20T04:53:44.912Z,39.90723
2023-06-20T04:54:14.911Z,41.78613
2023-06-20T04:54:44.903Z,40.75781
2023-06-20T04:55:14.900Z,41.52637
2023-06-20T04:55:44.901Z,42.05762
2023-06-20T04:56:14.906Z,42.12012
2023-06-20T04:56:44.904Z,42.57617
2023-06-20T04:57:14.907Z,43.92676
2023-06-20T04:57:44.912Z,44.20801
2023-06-20T04:58:14.905Z,43.53125
2023-06-20T04:58:44.908Z,44.69629
2023-06-20T04:59:14.902Z,44.00195
2023-06-20T04:59:44.904Z,43.28516
2023-06-20T05:00:14.908Z,43.91992
2023-06-20T05:00:44.912Z,44.2334
2023-06-20T05:01:14.916Z,46.03613
2023-06-20T05:01:44.969Z,45.85645
2023-06-20T05:02:14.903Z,46.64746
2023-06-20T05:02:44.971Z,47.2207
2023-06-20T05:03:14.964Z,47.27539
2023-06-20T05:03:46.840Z,49.40039
2023-06-20T05:04:15.967Z,49.17969
2023-06-20T05:04:44.908Z,50.4248
2023-06-20T05:05:14.926Z,50.11816
2023-06-20T05:05:44.914Z,52.41211
2023-06-20T05:06:14.914Z,50.97754
2023-06-20T05:06:44.934Z,51.53418
2023-06-20T05:07:14.909Z,51.36133
2023-06-20T05:07:44.939Z,51.68945
2023-06-20T05:08:14.923Z,51.71387
2023-06-20T05:08:44.907Z,51.83398
2023-06-20T05:09:14.912Z,50.77637
2023-06-20T05:09:44.912Z,51.45898
2023-06-20T05:10:14.907Z,51.15137
2023-06-20T05:10:44.914Z,49.6709
2023-06-20T05:11:14.932Z,49.14648
2023-06-20T05:11:44.911Z,49.24805
2023-06-20T05:12:14.905Z,49.37402
2023-06-20T05:12:44.910Z,50.49805
2023-06-20T05:13:14.928Z,50.71094
2023-06-20T05:13:44.912Z,51.92383
2023-06-20T05:14:14.920Z,50.59375
2023-06-20T05:14:44.948Z,50.64355
2023-06-20T05:15:14.908Z,52.24512
2023-06-20T05:15:44.937Z,52.14941
2023-06-20T05:16:14.947Z,51.5
2023-06-20T05:16:44.916Z,50.85645
2023-06-20T05:17:14.906Z,50.37207
2023-06-20T05:17:44.972Z,50.84473
2023-06-20T05:18:14.914Z,50.97656
2023-06-20T05:18:45.337Z,50.74805
2023-06-20T05:19:14.911Z,51.12695
2023-06-20T05:19:44.910Z,50.62012
2023-06-20T05:20:14.920Z,50.36816
2023-06-20T05:20:44.922Z,50.06543
2023-06-20T05:21:14.915Z,49.5459
2023-06-20T05:21:44.917Z,50.10547
2023-06-20T05:22:14.922Z,49.74609
2023-06-20T05:22:44.993Z,49.24609
2023-06-20T05:23:15.002Z,49.85645
2023-06-20T05:23:44.909Z,48.58789
2023-06-20T05:24:14.944Z,48.875
2023-06-20T05:24:44.949Z,48.47559
2023-06-20T05:25:14.912Z,49.00293
2023-06-20T05:25:44.916Z,47.93945
2023-06-20T05:26:14.918Z,47.16016
2023-06-20T05:26:44.913Z,48.37598
2023-06-20T05:27:14.915Z,48.61816
2023-06-20T05:27:44.920Z,48.75488
2023-06-20T05:28:14.917Z,48.53027
2023-06-20T05:28:44.925Z,47.17383
2023-06-20T05:29:14.916Z,46.7168
2023-06-20T05:29:44.915Z,45.7207
2023-06-20T05:30:14.932Z,45.26367
2023-06-20T05:30:44.914Z,42.90137
2023-06-20T05:31:14.967Z,43.36426
2023-06-20T05:31:45.003Z,43.02539
2023-06-20T05:32:15.048Z,43.4043
2023-06-20T05:32:45.202Z,43.74316
2023-06-20T05:33:15.007Z,43.37793
2023-06-20T05:33:44.918Z,43.00098
2023-06-20T05:34:16.837Z,43.72656
2023-06-20T05:34:46.258Z,44.37109
2023-06-20T05:35:14.923Z,42.89063
2023-06-20T05:35:44.926Z,43.23828
2023-06-20T05:36:14.927Z,42.74609
2023-06-20T05:36:44.920Z,42.50879
2023-06-20T05:37:14.940Z,42.29102
2023-06-20T05:37:44.918Z,41.95703
2023-06-20T05:38:14.920Z,41.3252
2023-06-20T05:38:44.919Z,42.55957
2023-06-20T05:39:14.960Z,41.88184
2023-06-20T05:39:44.924Z,41.88867
2023-06-20T05:40:14.920Z,40.66406
2023-06-20T05:40:44.941Z,41.25391
2023-06-20T05:41:14.919Z,42.02734
2023-06-20T05:41:44.944Z,41.30762
2023-06-20T05:42:14.923Z,41.5752
2023-06-20T05:42:44.961Z,40.72559
2023-06-20T05:43:14.923Z,40.59375
2023-06-20T05:43:44.936Z,41.2002
2023-06-20T05:44:14.924Z,41.44141
2023-06-20T05:44:44.926Z,41.75293
2023-06-20T05:45:14.932Z,42.82813
2023-06-20T05:45:45.042Z,43.04102
2023-06-20T05:46:14.922Z,42.48242
2023-06-20T05:46:44.954Z,41.42773
2023-06-20T05:47:15.038Z,43.29883
2023-06-20T05:47:44.988Z,42.54297
2023-06-20T05:48:14.938Z,42.2168
2023-06-20T05:48:44.939Z,42.72168
2023-06-20T05:49:14.936Z,41.76367
2023-06-20T05:49:44.936Z,42.74512
2023-06-20T05:50:14.925Z,43.55273
2023-06-20T05:50:44.940Z,43.43457
2023-06-20T05:51:14.946Z,43.97559
2023-06-20T05:51:44.954Z,42.97656
2023-06-20T05:52:14.931Z,41.75488
2023-06-20T05:52:44.944Z,40.22656
2023-06-20T05:53:14.927Z,40.32813